createdAt,value
2023-05-15T00:01:32.382Z,86.09
2023-05-15T00:03:59.885Z,85.98
2023-05-15T00:06:28.085Z,86.53
2023-05-15T00:08:56.975Z,86.26
2023-05-15T00:11:27.727Z,86.66
2023-05-15T00:13:55.371Z,85.90
2023-05-15T00:16:22.960Z,86.05
2023-05-15T00:18:50.545Z,86.70
2023-05-15T00:21:18.120Z,86.81
2023-05-15T00:23:47.458Z,86.89
2023-05-15T00:26:16.307Z,87.30
2023-05-15T00:28:43.785Z,87.06
2023-05-15T00:31:13.079Z,87.06
2023-05-15T00:33:40.662Z,86.56
2023-05-15T00:36:09.073Z,85.76
2023-05-15T00:38:36.574Z,86.18
2023-05-15T00:41:05.770Z,86.15
2023-05-15T00:43:35.935Z,86.08
2023-05-15T00:46:03.682Z,86.10
2023-05-15T00:48:32.560Z,86.06
2023-05-15T00:51:00.336Z,86.75
2023-05-15T00:53:28.413Z,86.21
2023-05-15T00:55:58.111Z,85.57
2023-05-15T00:58:26.170Z,85.62
2023-05-15T01:00:55.172Z,85.36
2023-05-15T01:03:22.862Z,84.84
2023-05-15T01:05:50.685Z,85.16
2023-05-15T01:08:22.540Z,85.17
2023-05-15T01:10:52.927Z,84.95
2023-05-15T01:13:21.790Z,85.06
2023-05-15T01:15:50.222Z,85.09
2023-05-15T01:18:19.274Z,85.50
2023-05-15T01:20:58.096Z,85.63
2023-05-15T01:23:33.333Z,85.46
2023-05-15T01:26:26.943Z,85.49
2023-05-15T01:28:59.037Z,85.21
2023-05-15T01:31:27.823Z,85.44
2023-05-15T01:33:57.460Z,85.62
2023-05-15T01:36:28.152Z,85.23
2023-05-15T01:38:58.803Z,85.53
2023-05-15T01:41:29.583Z,85.35
2023-05-15T01:44:02.272Z,85.15
2023-05-15T01:46:32.523Z,85.54
2023-05-15T01:49:01.963Z,85.30
2023-05-15T01:51:30.009Z,85.24
2023-05-15T01:53:59.282Z,84.95
2023-05-15T01:56:27.262Z,85.53
2023-05-15T01:58:55.503Z,85.20
2023-05-15T02:01:25.046Z,84.81
2023-05-15T02:03:53.022Z,84.77
2023-05-15T02:06:21.671Z,85.54
2023-05-15T02:08:49.351Z,86.75
2023-05-15T02:11:16.839Z,86.84
2023-05-15T02:13:46.989Z,85.83
2023-05-15T02:16:14.529Z,86.13
2023-05-15T02:18:43.519Z,85.51
2023-05-15T02:21:11.146Z,85.44
2023-05-15T02:23:39.177Z,85.98
2023-05-15T02:26:25.452Z,85.75
2023-05-15T02:28:58.401Z,84.98
2023-05-15T02:31:29.699Z,84.00
2023-05-15T02:34:06.939Z,85.62
2023-05-15T02:36:34.873Z,86.54
2023-05-15T02:39:02.758Z,87.74
2023-05-15T02:41:32.393Z,87.10
2023-05-15T02:44:00.901Z,86.18
2023-05-15T02:46:28.923Z,86.22
2023-05-15T02:48:56.683Z,86.00
2023-05-15T02:51:25.541Z,85.20
2023-05-15T02:53:53.189Z,85.03
2023-05-15T02:56:21.413Z,85.20
2023-05-15T02:58:49.631Z,85.50
2023-05-15T03:01:17.195Z,85.36
2023-05-15T03:03:44.869Z,85.59
2023-05-15T03:06:12.404Z,85.44
2023-05-15T03:08:41.245Z,85.15
2023-05-15T03:11:08.848Z,85.26
2023-05-15T03:13:36.376Z,85.08
2023-05-15T03:16:03.963Z,85.25
2023-05-15T03:18:31.513Z,85.48
2023-05-15T03:20:59.102Z,85.18
2023-05-15T03:23:26.602Z,85.21
2023-05-15T03:25:55.663Z,85.48
2023-05-15T03:28:23.234Z,85.46
2023-05-15T03:30:50.779Z,85.47
2023-05-15T03:33:18.288Z,85.80
2023-05-15T03:35:45.960Z,85.11
2023-05-15T03:38:13.480Z,85.07
2023-05-15T03:40:40.993Z,85.20
2023-05-15T03:43:09.890Z,85.25
2023-05-15T03:45:37.380Z,85.48
2023-05-15T03:48:05.398Z,86.13
2023-05-15T03:50:33.296Z,85.97
2023-05-15T03:53:00.841Z,85.71
2023-05-15T03:55:28.526Z,85.31
2023-05-15T03:57:56.106Z,85.50
2023-05-15T04:00:25.320Z,85.34
2023-05-15T04:02:53.088Z,86.12
2023-05-15T04:05:21.787Z,86.22
2023-05-15T04:07:49.450Z,86.02
2023-05-15T04:10:16.956Z,86.16
2023-05-15T04:12:44.470Z,86.16
2023-05-15T04:15:16.854Z,85.85
2023-05-15T04:17:45.883Z,85.88
2023-05-15T04:20:15.325Z,85.83
2023-05-15T04:22:43.157Z,85.20
2023-05-15T04:25:11.880Z,85.80
2023-05-15T04:27:39.884Z,85.64
2023-05-15T04:30:08.989Z,85.42
2023-05-15T04:32:37.488Z,84.81
2023-05-15T04:35:10.202Z,84.93
2023-05-15T04:37:38.197Z,84.30
2023-05-15T04:40:08.065Z,84.60
2023-05-15T04:42:39.420Z,85.79
2023-05-15T04:45:09.125Z,85.42
2023-05-15T04:47:36.836Z,85.76
2023-05-15T04:50:07.231Z,85.97
2023-05-15T04:52:34.769Z,85.54
2023-05-15T04:55:02.312Z,84.84
2023-05-15T04:57:30.941Z,85.57
2023-05-15T04:59:58.953Z,84.89
2023-05-15T05:02:26.519Z,85.16
2023-05-15T05:04:54.189Z,84.96
2023-05-15T05:07:22.992Z,84.90
2023-05-15T05:09:50.517Z,84.66
2023-05-15T05:12:18.211Z,85.05
2023-05-15T05:14:45.788Z,85.44
2023-05-15T05:17:13.799Z,85.54
2023-05-15T05:19:41.723Z,84.74
2023-05-15T05:22:09.450Z,84.50
2023-05-15T05:24:38.356Z,84.48
2023-05-15T05:27:06.445Z,84.45
2023-05-15T05:29:34.108Z,84.38
2023-05-15T05:32:01.709Z,84.10
2023-05-15T05:34:29.288Z,83.50
2023-05-15T05:36:56.824Z,83.32
2023-05-15T05:39:24.468Z,83.23
2023-05-15T05:41:53.290Z,82.82
2023-05-15T05:44:20.805Z,83.04
2023-05-15T05:46:48.310Z,82.91
2023-05-15T05:49:15.870Z,82.64
2023-05-15T05:51:43.838Z,82.27
2023-05-15T05:54:11.338Z,82.07
2023-05-15T05:56:38.826Z,82.03
2023-05-15T05:59:07.679Z,81.98
2023-05-15T06:01:35.283Z,81.99
2023-05-15T06:04:02.873Z,82.08
2023-05-15T06:06:30.817Z,81.96
2023-05-15T06:08:58.341Z,81.29
2023-05-15T06:11:25.925Z,81.59
2023-05-15T06:13:53.425Z,80.76
2023-05-15T06:16:22.598Z,80.61
2023-05-15T06:18:50.205Z,80.29
2023-05-15T06:21:17.786Z,79.39
2023-05-15T06:23:45.797Z,79.02
2023-05-15T06:26:13.310Z,79.48
2023-05-15T06:28:40.817Z,78.99
2023-05-15T06:31:08.347Z,78.93
2023-05-15T06:33:37.172Z,78.52
2023-05-15T06:36:05.001Z,78.55
2023-05-15T06:38:32.476Z,78.16
2023-05-15T06:41:00.118Z,78.50
2023-05-15T06:43:27.666Z,77.96
2023-05-15T06:45:55.179Z,77.90
2023-05-15T06:48:22.929Z,77.55
2023-05-15T06:50:52.476Z,77.46
2023-05-15T06:53:21.006Z,77.20
2023-05-15T06:55:48.480Z,76.46
2023-05-15T06:58:17.943Z,75.39
2023-05-15T07:00:45.447Z,76.00
2023-05-15T07:03:14.319Z,75.53
2023-05-15T07:05:42.301Z,75.72
2023-05-15T07:08:11.139Z,75.19
2023-05-15T07:10:38.715Z,74.48
2023-05-15T07:13:06.554Z,74.67
2023-05-15T07:15:34.087Z,74.98
2023-05-15T07:18:01.730Z,74.51
2023-05-15T07:20:31.732Z,74.03
2023-05-15T07:23:00.088Z,73.44
2023-05-15T07:25:29.317Z,72.46
2023-05-15T07:27:57.001Z,71.79
2023-05-15T07:30:25.001Z,71.72
2023-05-15T07:32:52.695Z,70.65
2023-05-15T07:35:20.341Z,69.48
2023-05-15T07:37:47.851Z,68.92
2023-05-15T07:40:15.738Z,69.07
2023-05-15T07:42:45.118Z,68.53
2023-05-15T07:45:12.721Z,66.67
2023-05-15T07:47:42.693Z,67.21
2023-05-15T07:50:11.240Z,61.95
2023-05-15T07:52:38.856Z,61.49
2023-05-15T07:55:07.424Z,60.51
2023-05-15T07:57:34.900Z,60.60
2023-05-15T08:00:10.093Z,60.16
2023-05-15T08:02:40.645Z,58.35
2023-05-15T08:05:08.938Z,58.34
2023-05-15T08:07:36.490Z,58.42
2023-05-15T08:10:06.191Z,59.00
2023-05-15T08:12:34.026Z,58.28
2023-05-15T08:15:01.720Z,57.12
2023-05-15T08:17:30.533Z,57.59
2023-05-15T08:19:58.037Z,55.50
2023-05-15T08:22:25.528Z,57.04
2023-05-15T08:24:53.065Z,57.06
2023-05-15T08:27:20.597Z,55.45
2023-05-15T08:29:48.528Z,55.23
2023-05-15T08:32:16.313Z,55.54
2023-05-15T08:34:45.237Z,54.94
2023-05-15T08:37:12.734Z,53.94
2023-05-15T08:39:40.285Z,53.19
2023-05-15T08:42:10.351Z,53.77
2023-05-15T08:44:39.287Z,53.34
2023-05-15T08:47:07.277Z,52.70
2023-05-15T08:49:42.192Z,52.34
2023-05-15T08:52:11.363Z,51.68
2023-05-15T08:54:40.084Z,50.56
2023-05-15T08:57:08.212Z,50.66
2023-05-15T08:59:35.759Z,50.88
2023-05-15T09:02:03.553Z,50.23
2023-05-15T09:04:31.183Z,50.65
2023-05-15T09:07:00.318Z,52.00
2023-05-15T09:09:30.685Z,52.08
2023-05-15T09:11:59.748Z,51.21
2023-05-15T09:14:27.249Z,51.58
2023-05-15T09:16:55.254Z,52.62
2023-05-15T09:19:23.354Z,52.89
2023-05-15T09:21:50.912Z,52.10
2023-05-15T09:24:21.497Z,52.83
2023-05-15T09:27:02.997Z,52.13
2023-05-15T09:29:33.051Z,52.72
2023-05-15T09:32:03.784Z,53.25
2023-05-15T09:34:32.181Z,52.35
2023-05-15T09:37:00.036Z,53.30
2023-05-15T09:39:27.619Z,54.28
2023-05-15T09:42:07.031Z,53.66
2023-05-15T09:44:34.886Z,53.60
2023-05-15T09:47:02.481Z,53.75
2023-05-15T09:49:32.073Z,54.02
2023-05-15T09:52:01.004Z,53.08
2023-05-15T09:54:30.022Z,52.23
2023-05-15T09:57:08.530Z,52.65
2023-05-15T09:59:36.127Z,53.35
2023-05-15T10:02:03.727Z,53.41
2023-05-15T10:04:35.648Z,52.35
2023-05-15T10:07:03.338Z,51.35
2023-05-15T10:09:32.017Z,51.00
2023-05-15T10:12:00.952Z,51.05
2023-05-15T10:14:29.103Z,49.84
2023-05-15T10:16:56.818Z,48.50
2023-05-15T10:19:26.457Z,47.58
2023-05-15T10:21:54.844Z,47.30
2023-05-15T10:24:22.596Z,47.55
2023-05-15T10:26:50.258Z,48.83
2023-05-15T10:29:21.144Z,49.36
2023-05-15T10:31:49.727Z,50.12
2023-05-15T10:34:17.397Z,50.70
2023-05-15T10:36:45.426Z,51.07
2023-05-15T10:39:13.127Z,51.31
2023-05-15T10:41:41.260Z,51.45
2023-05-15T10:44:09.203Z,52.24
2023-05-15T10:46:38.571Z,52.27
2023-05-15T10:49:06.269Z,52.17
2023-05-15T10:51:36.752Z,51.84
2023-05-15T10:54:04.890Z,50.39
2023-05-15T10:56:33.191Z,49.71
2023-05-15T10:59:06.983Z,50.29
2023-05-15T11:01:35.656Z,51.89
2023-05-15T11:04:12.614Z,51.45
2023-05-15T11:06:41.385Z,50.03
2023-05-15T11:09:34.583Z,49.30
2023-05-15T11:12:02.893Z,49.90
2023-05-15T11:14:31.518Z,49.89
2023-05-15T11:17:06.112Z,50.57
2023-05-15T11:19:37.212Z,51.25
2023-05-15T11:22:17.536Z,51.70
2023-05-15T11:24:56.077Z,51.41
2023-05-15T11:27:24.667Z,51.03
2023-05-15T11:30:15.324Z,50.82
2023-05-15T11:32:50.457Z,50.19
2023-05-15T11:35:24.547Z,49.80
2023-05-15T11:37:54.280Z,49.57
2023-05-15T11:40:24.017Z,50.16
2023-05-15T11:43:09.285Z,51.45
2023-05-15T11:45:38.430Z,50.27
2023-05-15T11:48:07.672Z,50.37
2023-05-15T11:50:36.667Z,50.01
2023-05-15T11:53:05.700Z,49.02
2023-05-15T11:55:34.211Z,48.24
2023-05-15T11:58:01.721Z,48.22
2023-05-15T12:00:29.318Z,48.37
2023-05-15T12:02:57.033Z,48.36
2023-05-15T12:05:24.835Z,48.53
2023-05-15T12:07:53.869Z,49.23
2023-05-15T12:10:21.405Z,47.49
2023-05-15T12:12:50.036Z,48.02
2023-05-15T12:15:18.295Z,48.21
2023-05-15T12:17:46.431Z,48.12
2023-05-15T12:20:17.848Z,47.55
2023-05-15T12:22:45.831Z,46.57
2023-05-15T12:25:16.618Z,45.87
2023-05-15T12:27:44.384Z,46.36
2023-05-15T12:30:12.412Z,46.00
2023-05-15T12:32:40.359Z,46.92
2023-05-15T12:35:08.365Z,46.95
2023-05-15T12:37:36.727Z,47.37
2023-05-15T12:40:10.248Z,46.91
2023-05-15T12:42:42.791Z,46.88
2023-05-15T12:45:14.717Z,46.34
2023-05-15T12:47:42.996Z,46.42
2023-05-15T12:50:17.816Z,46.32
2023-05-15T12:52:51.243Z,45.86
2023-05-15T12:55:19.326Z,45.80
2023-05-15T12:57:48.176Z,46.07
2023-05-15T13:00:16.373Z,45.83
2023-05-15T13:02:44.986Z,45.94
2023-05-15T13:05:12.773Z,45.66
2023-05-15T13:07:42.093Z,44.36
2023-05-15T13:10:10.292Z,43.78
2023-05-15T13:12:38.776Z,43.89
2023-05-15T13:15:08.861Z,44.07
2023-05-15T13:17:36.521Z,44.01
2023-05-15T13:20:05.660Z,44.04
2023-05-15T13:22:33.170Z,44.50
2023-05-15T13:25:00.694Z,43.77
2023-05-15T13:27:28.239Z,43.88
2023-05-15T13:29:55.896Z,43.92
2023-05-15T13:32:26.011Z,43.46
2023-05-15T13:34:54.908Z,43.55
2023-05-15T13:37:22.821Z,43.76
2023-05-15T13:39:50.264Z,43.96
2023-05-15T13:42:17.781Z,43.68
2023-05-15T13:44:45.294Z,45.08
2023-05-15T13:47:12.856Z,45.29
2023-05-15T13:49:41.785Z,43.81
2023-05-15T13:52:09.445Z,43.06
2023-05-15T13:54:36.957Z,43.31
2023-05-15T13:57:04.771Z,42.70
2023-05-15T13:59:32.245Z,42.56
2023-05-15T14:01:59.743Z,42.30
2023-05-15T14:04:27.486Z,42.78
2023-05-15T14:06:56.349Z,43.03
2023-05-15T14:09:23.885Z,43.26
2023-05-15T14:11:51.415Z,42.65
2023-05-15T14:14:18.958Z,42.75
2023-05-15T14:16:46.669Z,42.59
2023-05-15T14:19:14.311Z,42.37
2023-05-15T14:21:41.841Z,43.03
2023-05-15T14:24:10.753Z,43.08
2023-05-15T14:26:38.567Z,43.32
2023-05-15T14:29:06.100Z,42.74
2023-05-15T14:31:33.614Z,42.87
2023-05-15T14:34:01.226Z,43.86
2023-05-15T14:36:28.703Z,43.17
2023-05-15T14:38:57.183Z,42.79
2023-05-15T14:41:28.466Z,42.96
2023-05-15T14:43:56.132Z,42.59
2023-05-15T14:46:23.768Z,42.90
2023-05-15T14:48:51.321Z,42.83
2023-05-15T14:51:19.992Z,42.90
2023-05-15T14:53:47.673Z,42.81
2023-05-15T14:56:16.551Z,43.10
2023-05-15T14:58:46.555Z,42.75
2023-05-15T15:01:14.068Z,42.55
2023-05-15T15:03:42.564Z,42.65
2023-05-15T15:06:10.244Z,42.22
2023-05-15T15:08:37.742Z,42.31
2023-05-15T15:11:06.357Z,43.20
2023-05-15T15:13:33.834Z,43.33
2023-05-15T15:16:02.725Z,43.20
2023-05-15T15:18:30.308Z,42.56
2023-05-15T15:20:57.881Z,42.24
2023-05-15T15:23:25.404Z,41.61
2023-05-15T15:25:52.888Z,40.90
2023-05-15T15:28:20.473Z,40.36
2023-05-15T15:30:48.017Z,39.27
2023-05-15T15:33:16.835Z,39.28
2023-05-15T15:35:44.741Z,39.94
2023-05-15T15:38:13.296Z,40.17
2023-05-15T15:40:41.518Z,40.93
2023-05-15T15:43:08.980Z,40.41
2023-05-15T15:45:36.546Z,40.79
2023-05-15T15:48:04.328Z,41.04
2023-05-15T15:50:33.265Z,40.90
2023-05-15T15:53:00.787Z,41.18
2023-05-15T15:55:28.301Z,41.55
2023-05-15T15:57:55.789Z,42.06
2023-05-15T16:00:23.441Z,41.99
2023-05-15T16:02:51.058Z,41.73
2023-05-15T16:05:18.635Z,41.71
2023-05-15T16:07:48.839Z,42.01
2023-05-15T16:10:16.461Z,42.60
2023-05-15T16:12:44.999Z,42.63
2023-05-15T16:15:22.268Z,42.49
2023-05-15T16:17:52.728Z,41.74
2023-05-15T16:20:20.863Z,42.13
2023-05-15T16:22:50.018Z,42.42
2023-05-15T16:25:17.608Z,42.91
2023-05-15T16:27:45.127Z,42.63
2023-05-15T16:30:14.017Z,42.92
2023-05-15T16:32:41.561Z,43.40
2023-05-15T16:35:09.838Z,42.97
2023-05-15T16:37:37.341Z,42.64
2023-05-15T16:40:07.591Z,42.83
2023-05-15T16:42:38.819Z,42.84
2023-05-15T16:45:07.806Z,42.61
2023-05-15T16:47:37.552Z,42.45
2023-05-15T16:50:06.000Z,42.51
2023-05-15T16:52:33.511Z,42.46
2023-05-15T16:55:01.090Z,42.73
2023-05-15T16:57:30.835Z,42.56
2023-05-15T16:59:59.088Z,42.80
2023-05-15T17:02:26.864Z,43.41
2023-05-15T17:04:54.427Z,43.76
2023-05-15T17:07:21.937Z,45.49
2023-05-15T17:09:49.397Z,45.87
2023-05-15T17:12:16.946Z,46.23
2023-05-15T17:14:45.837Z,46.76
2023-05-15T17:17:13.459Z,46.71
2023-05-15T17:19:41.079Z,46.66
2023-05-15T17:22:08.606Z,47.97
2023-05-15T17:24:49.929Z,51.24
2023-05-15T17:27:19.257Z,53.56
2023-05-15T17:29:48.646Z,53.71
2023-05-15T17:32:17.056Z,53.96
2023-05-15T17:34:44.994Z,53.79
2023-05-15T17:37:12.619Z,54.52
2023-05-15T17:39:40.132Z,56.62
2023-05-15T17:42:07.710Z,54.20
2023-05-15T17:44:35.463Z,54.14
2023-05-15T17:47:04.513Z,54.89
2023-05-15T17:49:34.115Z,58.43
2023-05-15T17:52:01.913Z,55.10
2023-05-15T17:54:29.450Z,55.42
2023-05-15T17:56:56.994Z,55.54
2023-05-15T17:59:24.489Z,55.18
2023-05-15T18:01:52.067Z,54.91
2023-05-15T18:04:21.029Z,56.78
2023-05-15T18:06:48.687Z,57.36
2023-05-15T18:09:16.336Z,59.91
2023-05-15T18:11:43.958Z,60.34
2023-05-15T18:14:11.470Z,61.23
2023-05-15T18:16:39.063Z,61.76
2023-05-15T18:19:07.125Z,60.38
2023-05-15T18:21:37.864Z,59.00
2023-05-15T18:24:05.996Z,60.58
2023-05-15T18:26:33.537Z,59.30
2023-05-15T18:29:01.037Z,58.31
2023-05-15T18:31:28.670Z,58.98
2023-05-15T18:33:56.198Z,59.84
2023-05-15T18:36:23.711Z,59.69
2023-05-15T18:38:52.549Z,59.57
2023-05-15T18:41:20.072Z,58.83
2023-05-15T18:43:47.553Z,60.46
2023-05-15T18:46:15.147Z,60.79
2023-05-15T18:48:42.693Z,61.64
2023-05-15T18:51:10.764Z,61.56
2023-05-15T18:53:38.288Z,61.41
2023-05-15T18:56:07.176Z,61.32
2023-05-15T18:58:35.881Z,60.78
2023-05-15T19:01:03.701Z,59.46
2023-05-15T19:03:31.314Z,58.76
2023-05-15T19:05:59.102Z,59.93
2023-05-15T19:08:26.604Z,61.89
2023-05-15T19:10:54.084Z,64.53
2023-05-15T19:13:22.922Z,65.97
2023-05-15T19:15:54.018Z,65.13
2023-05-15T19:18:21.667Z,66.85
2023-05-15T19:20:51.947Z,67.05
2023-05-15T19:23:20.502Z,66.01
2023-05-15T19:25:48.077Z,64.74
2023-05-15T19:28:15.686Z,64.45
2023-05-15T19:30:44.665Z,66.53
2023-05-15T19:33:13.234Z,64.49
2023-05-15T19:35:40.915Z,66.10
2023-05-15T19:38:08.596Z,65.36
2023-05-15T19:40:36.553Z,65.31
2023-05-15T19:43:04.200Z,66.64
2023-05-15T19:45:31.727Z,67.98
2023-05-15T19:48:01.302Z,68.65
2023-05-15T19:50:29.837Z,69.08
2023-05-15T19:52:59.255Z,70.40
2023-05-15T19:55:27.235Z,70.23
2023-05-15T19:57:57.273Z,69.22
2023-05-15T20:00:25.591Z,69.28
2023-05-15T20:02:53.757Z,69.60
2023-05-15T20:05:22.745Z,71.62
2023-05-15T20:07:50.253Z,71.50
2023-05-15T20:10:19.111Z,71.45
2023-05-15T20:12:46.925Z,72.45
2023-05-15T20:15:15.684Z,71.52
2023-05-15T20:17:43.670Z,71.22
2023-05-15T20:20:12.105Z,70.70
2023-05-15T20:22:42.857Z,70.48
2023-05-15T20:25:10.608Z,70.88
2023-05-15T20:27:38.220Z,71.35
2023-05-15T20:30:06.920Z,71.75
2023-05-15T20:32:34.675Z,70.83
2023-05-15T20:35:02.313Z,71.85
2023-05-15T20:37:30.258Z,72.79
2023-05-15T20:39:59.962Z,73.12
2023-05-15T20:42:28.420Z,75.01
2023-05-15T20:44:55.993Z,74.85
2023-05-15T20:47:23.585Z,74.96
2023-05-15T20:49:51.198Z,74.05
2023-05-15T20:52:19.066Z,74.91
2023-05-15T20:54:46.563Z,75.36
2023-05-15T20:57:15.495Z,75.39
2023-05-15T20:59:43.164Z,76.40
2023-05-15T21:02:11.083Z,77.02
2023-05-15T21:04:39.264Z,77.90
2023-05-15T21:07:06.896Z,77.42
2023-05-15T21:09:34.427Z,78.92
2023-05-15T21:12:03.806Z,78.77
2023-05-15T21:14:32.655Z,78.08
2023-05-15T21:17:00.232Z,78.15
2023-05-15T21:19:27.761Z,77.99
2023-05-15T21:21:55.255Z,78.67
2023-05-15T21:24:22.948Z,77.02
2023-05-15T21:26:50.475Z,75.80
2023-05-15T21:29:17.970Z,76.69
2023-05-15T21:31:46.915Z,76.84
2023-05-15T21:34:14.441Z,77.19
2023-05-15T21:36:42.025Z,77.16
2023-05-15T21:39:09.663Z,76.76
2023-05-15T21:41:37.160Z,77.54
2023-05-15T21:44:04.779Z,77.50
2023-05-15T21:46:32.282Z,76.56
2023-05-15T21:49:01.895Z,77.11
2023-05-15T21:51:29.422Z,77.49
2023-05-15T21:53:56.866Z,77.44
2023-05-15T21:56:24.371Z,77.69
2023-05-15T21:58:53.397Z,78.70
2023-05-15T22:01:20.969Z,79.37
2023-05-15T22:03:48.640Z,79.85
2023-05-15T22:06:17.540Z,79.79
2023-05-15T22:08:45.044Z,80.40
2023-05-15T22:11:12.602Z,80.44
2023-05-15T22:13:40.101Z,80.79
2023-05-15T22:16:07.724Z,79.87
2023-05-15T22:18:35.590Z,79.81
2023-05-15T22:21:03.503Z,79.40
2023-05-15T22:23:32.415Z,78.95
2023-05-15T22:25:59.974Z,79.28
2023-05-15T22:28:27.431Z,79.73
2023-05-15T22:30:54.916Z,79.55
2023-05-15T22:33:24.116Z,79.21
2023-05-15T22:35:52.782Z,79.36
2023-05-15T22:38:20.492Z,79.97
2023-05-15T22:40:51.632Z,79.00
2023-05-15T22:43:19.355Z,79.13
2023-05-15T22:45:46.867Z,79.03
2023-05-15T22:48:15.476Z,78.93
2023-05-15T22:50:43.658Z,78.56
2023-05-15T22:53:11.555Z,78.10
2023-05-15T22:55:39.118Z,78.04
2023-05-15T22:58:07.933Z,77.42
2023-05-15T23:00:35.534Z,77.21
2023-05-15T23:03:03.099Z,77.12
2023-05-15T23:05:30.777Z,76.97
2023-05-15T23:07:58.294Z,77.19
2023-05-15T23:10:26.185Z,77.64
2023-05-15T23:12:53.859Z,77.69
2023-05-15T23:15:22.743Z,77.28
2023-05-15T23:17:50.492Z,77.53
2023-05-15T23:20:18.689Z,77.78
2023-05-15T23:22:46.212Z,77.86
2023-05-15T23:25:13.889Z,77.84
2023-05-15T23:27:41.409Z,77.79
2023-05-15T23:30:10.100Z,77.74
2023-05-15T23:32:38.974Z,78.02
2023-05-15T23:35:07.524Z,77.89
2023-05-15T23:37:35.091Z,77.97
2023-05-15T23:40:05.487Z,77.98
2023-05-15T23:42:32.969Z,77.66
2023-05-15T23:45:00.662Z,77.68
2023-05-15T23:47:28.346Z,78.36
2023-05-15T23:49:57.183Z,78.18
2023-05-15T23:52:24.681Z,77.98
2023-05-15T23:54:52.141Z,78.76
2023-05-15T23:57:19.644Z,78.60
2023-05-15T23:59:47.130Z,78.52
